Time;durP1;ratioP1;P1;durP2;ratioP2;P2;SDS_P1;SDS_P2;PMS_P1;PMS_P2;Temp;Humidity;BMP_temperature;BMP_pressure;BME280_temperature;BME280_humidity;BME280_pressure;Samples;Min_cycle;Max_cycle;Signal;HPM_P1;HPM_P2
2023/03/08 00:01:21;;;;;;;6.25;3.25;;;;;;;;;;4993868;28;20030;-74
2023/03/08 00:03:50;;;;;;;7.40;3.70;;;;;;;;;;4991701;28;20033;-74
2023/03/08 00:06:15;;;;;;;7.47;3.58;;;;;;;;;;4985036;28;20034;-74
2023/03/08 00:08:41;;;;;;;9.90;4.30;;;;;;;;;;4993615;28;20103;-74
2023/03/08 00:11:08;;;;;;;5.85;3.63;;;;;;;;;;4993349;28;20045;-74
2023/03/08 00:13:34;;;;;;;9.18;3.70;;;;;;;;;;4992556;28;20173;-73
2023/03/08 00:16:05;;;;;;;7.78;3.58;;;;;;;;;;4992964;28;20101;-73
2023/03/08 00:18:31;;;;;;;5.85;3.53;;;;;;;;;;4986138;28;20374;-73
2023/03/08 00:20:59;;;;;;;9.85;4.28;;;;;;;;;;4990595;28;20042;-74
2023/03/08 00:23:25;;;;;;;6.40;3.70;;;;;;;;;;4993216;28;20030;-73
2023/03/08 00:25:52;;;;;;;6.57;3.22;;;;;;;;;;4988750;28;20037;-73
2023/03/08 00:28:17;;;;;;;5.75;3.25;;;;;;;;;;5009036;28;20057;-73
2023/03/08 00:30:42;;;;;;;6.22;3.28;;;;;;;;;;4990737;28;20034;-74
2023/03/08 00:33:08;;;;;;;6.47;3.28;;;;;;;;;;4984344;28;20039;-73
2023/03/08 00:35:33;;;;;;;5.80;3.15;;;;;;;;;;4988044;28;20093;-74
2023/03/08 00:37:59;;;;;;;7.65;3.75;;;;;;;;;;4997337;28;20034;-74
2023/03/08 00:40:24;;;;;;;8.70;3.95;;;;;;;;;;4996934;28;20026;-73
2023/03/08 00:42:49;;;;;;;5.45;3.67;;;;;;;;;;4994649;28;20034;-73
2023/03/08 00:45:15;;;;;;;8.20;4.07;;;;;;;;;;4987834;28;20033;-74
2023/03/08 00:47:40;;;;;;;7.38;4.05;;;;;;;;;;4989830;28;20473;-74
2023/03/08 00:50:07;;;;;;;6.43;3.95;;;;;;;;;;4997236;28;20050;-74
2023/03/08 00:52:32;;;;;;;6.32;4.00;;;;;;;;;;4996679;28;20050;-73
2023/03/08 00:54:57;;;;;;;9.18;4.72;;;;;;;;;;4997059;28;20057;-73
2023/03/08 00:57:23;;;;;;;7.63;4.53;;;;;;;;;;4996742;28;20501;-74
2023/03/08 00:59:48;;;;;;;9.10;4.90;;;;;;;;;;4996787;28;20449;-73
2023/03/08 01:02:14;;;;;;;7.07;4.72;;;;;;;;;;4996363;28;20049;-74
2023/03/08 01:04:39;;;;;;;9.43;4.55;;;;;;;;;;4988138;28;20039;-73
2023/03/08 01:07:05;;;;;;;10.10;5.40;;;;;;;;;;4996529;28;20030;-74
2023/03/08 01:09:30;;;;;;;8.57;4.80;;;;;;;;;;4996638;28;21211;-74
2023/03/08 01:11:55;;;;;;;8.55;4.57;;;;;;;;;;4995564;28;20049;-73
2023/03/08 01:14:21;;;;;;;7.40;4.40;;;;;;;;;;4996456;28;20038;-74
2023/03/08 01:16:46;;;;;;;8.90;4.80;;;;;;;;;;4994961;28;20065;-74
2023/03/08 01:19:12;;;;;;;9.05;4.93;;;;;;;;;;4986786;28;20039;-74
2023/03/08 01:21:37;;;;;;;10.13;4.70;;;;;;;;;;5008734;28;20474;-73
2023/03/08 01:24:03;;;;;;;7.25;4.85;;;;;;;;;;4996515;28;20114;-73
2023/03/08 01:26:28;;;;;;;6.43;4.25;;;;;;;;;;4994543;28;20035;-74
2023/03/08 01:28:54;;;;;;;9.90;5.30;;;;;;;;;;4987763;28;20419;-74
2023/03/08 01:31:25;;;;;;;8.25;4.78;;;;;;;;;;4993481;28;20042;-74
2023/03/08 01:33:51;;;;;;;9.52;5.10;;;;;;;;;;5003341;28;20478;-73
2023/03/08 01:36:20;;;;;;;9.35;5.82;;;;;;;;;;4990901;28;20081;-74
2023/03/08 01:38:47;;;;;;;10.18;4.85;;;;;;;;;;4996338;28;20064;-74
2023/03/08 01:41:24;;;;;;;8.23;5.35;;;;;;;;;;5010828;28;20565;-74
2023/03/08 01:43:50;;;;;;;10.45;5.45;;;;;;;;;;4996154;28;20056;-74
2023/03/08 01:46:23;;;;;;;7.38;4.65;;;;;;;;;;5010136;28;20447;-74
2023/03/08 01:48:53;;;;;;;10.20;4.25;;;;;;;;;;4990948;28;20504;-74
2023/03/08 01:51:27;;;;;;;9.80;5.40;;;;;;;;;;5006202;28;20050;-74
2023/03/08 01:53:54;;;;;;;8.13;5.13;;;;;;;;;;4994288;28;20120;-74
2023/03/08 01:56:21;;;;;;;10.63;5.68;;;;;;;;;;4995681;28;20042;-74
2023/03/08 01:58:48;;;;;;;11.32;5.45;;;;;;;;;;4995780;28;20030;-74
2023/03/08 02:01:13;;;;;;;9.70;5.30;;;;;;;;;;5010726;28;20077;-74
2023/03/08 02:03:39;;;;;;;8.70;4.80;;;;;;;;;;4990807;28;20066;-74
2023/03/08 02:06:05;;;;;;;13.35;6.30;;;;;;;;;;4989761;28;20562;-74
2023/03/08 02:08:31;;;;;;;10.32;5.55;;;;;;;;;;4988920;28;20101;-74
2023/03/08 02:10:58;;;;;;;9.45;5.72;;;;;;;;;;4991829;28;20046;-74
2023/03/08 02:13:24;;;;;;;7.05;3.80;;;;;;;;;;4994359;28;20065;-74
2023/03/08 02:15:50;;;;;;;12.45;5.47;;;;;;;;;;4990706;28;20035;-74
2023/03/08 02:18:15;;;;;;;8.93;5.07;;;;;;;;;;5022667;28;20038;-74
2023/03/08 02:20:41;;;;;;;10.10;5.70;;;;;;;;;;4995289;28;20168;-74
2023/03/08 02:23:15;;;;;;;8.32;5.43;;;;;;;;;;4979731;28;20065;-74
2023/03/08 02:25:41;;;;;;;6.15;4.32;;;;;;;;;;4991058;28;20041;-74
2023/03/08 02:28:07;;;;;;;10.38;5.75;;;;;;;;;;4989405;28;20042;-74
2023/03/08 02:30:36;;;;;;;11.65;5.85;;;;;;;;;;5002085;28;20038;-74
2023/03/08 02:33:02;;;;;;;10.15;5.78;;;;;;;;;;5010294;28;20043;-74
2023/03/08 02:35:28;;;;;;;7.82;5.22;;;;;;;;;;4991031;28;20038;-74
2023/03/08 02:37:54;;;;;;;10.80;3.72;;;;;;;;;;4987576;28;20049;-74
2023/03/08 02:40:19;;;;;;;11.85;4.85;;;;;;;;;;4994851;28;20046;-74
2023/03/08 02:42:45;;;;;;;8.57;4.15;;;;;;;;;;4986803;28;20035;-74
2023/03/08 02:45:11;;;;;;;7.55;4.47;;;;;;;;;;4988075;28;20537;-74
2023/03/08 02:47:36;;;;;;;8.57;4.05;;;;;;;;;;4992084;28;20121;-74
2023/03/08 02:50:02;;;;;;;8.35;4.43;;;;;;;;;;4986554;28;20041;-75
2023/03/08 02:52:27;;;;;;;6.78;4.20;;;;;;;;;;4990269;28;20104;-74
2023/03/08 02:54:53;;;;;;;11.15;4.38;;;;;;;;;;4986985;28;20042;-73
2023/03/08 02:57:19;;;;;;;8.05;4.40;;;;;;;;;;4984038;28;20039;-74
2023/03/08 02:59:45;;;;;;;8.82;4.88;;;;;;;;;;4980048;28;20038;-74
2023/03/08 03:02:10;;;;;;;5.30;2.97;;;;;;;;;;4992235;28;20559;-73
2023/03/08 03:04:35;;;;;;;4.82;2.90;;;;;;;;;;4981023;28;20106;-73
2023/03/08 03:07:01;;;;;;;9.23;4.75;;;;;;;;;;4993386;28;20046;-74
2023/03/08 03:09:27;;;;;;;13.25;5.45;;;;;;;;;;4994669;28;20035;-74
2023/03/08 03:11:53;;;;;;;9.55;5.72;;;;;;;;;;4992857;28;20038;-74
2023/03/08 03:14:18;;;;;;;9.50;4.88;;;;;;;;;;4976877;28;20053;-74
2023/03/08 03:16:44;;;;;;;6.97;3.80;;;;;;;;;;4993149;28;20042;-74
2023/03/08 03:19:09;;;;;;;10.48;4.30;;;;;;;;;;4988671;28;20432;-74
2023/03/08 03:21:35;;;;;;;8.15;4.25;;;;;;;;;;4988006;28;20085;-74
2023/03/08 03:24:00;;;;;;;11.68;5.25;;;;;;;;;;4979638;28;20049;-74
2023/03/08 03:26:26;;;;;;;9.80;5.18;;;;;;;;;;4987466;28;20034;-74
2023/03/08 03:28:55;;;;;;;11.68;4.88;;;;;;;;;;4991544;28;20038;-74
2023/03/08 03:31:21;;;;;;;9.85;5.32;;;;;;;;;;4994030;28;20042;-74
2023/03/08 03:33:48;;;;;;;5.25;3.35;;;;;;;;;;4987137;28;20078;-74
2023/03/08 03:36:16;;;;;;;10.70;5.57;;;;;;;;;;5005311;28;20121;-74
2023/03/08 03:38:41;;;;;;;12.82;5.68;;;;;;;;;;5008636;28;20061;-74
2023/03/08 03:41:09;;;;;;;8.80;4.95;;;;;;;;;;4992215;28;20478;-74
2023/03/08 03:43:35;;;;;;;9.35;5.28;;;;;;;;;;4982344;28;20093;-74
2023/03/08 03:46:03;;;;;;;12.55;5.03;;;;;;;;;;5006129;28;20422;-74
2023/03/08 03:48:29;;;;;;;8.40;4.80;;;;;;;;;;5009026;28;20050;-74
2023/03/08 03:50:56;;;;;;;13.20;5.82;;;;;;;;;;4990109;28;20088;-74
2023/03/08 03:53:22;;;;;;;10.25;5.72;;;;;;;;;;4992435;28;20448;-75
2023/03/08 03:55:48;;;;;;;13.77;6.30;;;;;;;;;;4992552;28;20034;-74
2023/03/08 03:58:13;;;;;;;12.65;6.30;;;;;;;;;;4993841;28;20096;-74
2023/03/08 04:00:39;;;;;;;8.35;4.25;;;;;;;;;;4992095;28;20069;-74
2023/03/08 04:03:04;;;;;;;9.55;6.00;;;;;;;;;;4991282;28;20035;-74
2023/03/08 04:05:30;;;;;;;10.30;5.65;;;;;;;;;;4989143;28;20033;-74
2023/03/08 04:07:55;;;;;;;8.27;4.70;;;;;;;;;;4983680;28;20042;-74
2023/03/08 04:10:20;;;;;;;10.73;5.68;;;;;;;;;;4985938;28;20030;-74
2023/03/08 04:12:50;;;;;;;10.13;5.47;;;;;;;;;;4997213;28;20074;-74
2023/03/08 04:15:15;;;;;;;10.25;5.20;;;;;;;;;;4991435;28;20035;-74
2023/03/08 04:17:42;;;;;;;8.18;4.47;;;;;;;;;;4997720;28;20516;-74
2023/03/08 04:20:08;;;;;;;6.05;3.40;;;;;;;;;;4995789;28;20038;-75
2023/03/08 04:22:34;;;;;;;17.75;5.43;;;;;;;;;;4997598;28;20042;-74
2023/03/08 04:24:59;;;;;;;12.73;5.97;;;;;;;;;;4981475;28;20027;-74
2023/03/08 04:27:25;;;;;;;11.40;5.93;;;;;;;;;;4986625;28;20042;-74
2023/03/08 04:29:51;;;;;;;10.35;5.18;;;;;;;;;;4982002;28;20467;-74
2023/03/08 04:32:17;;;;;;;6.15;3.13;;;;;;;;;;4994786;28;20097;-74
2023/03/08 04:34:42;;;;;;;7.40;4.03;;;;;;;;;;5012704;28;20034;-74
2023/03/08 04:37:11;;;;;;;8.43;4.20;;;;;;;;;;4997202;28;20497;-74
2023/03/08 04:39:36;;;;;;;12.52;5.00;;;;;;;;;;4997236;28;20121;-74
2023/03/08 04:42:02;;;;;;;12.30;5.75;;;;;;;;;;4995539;28;20109;-74
2023/03/08 04:44:28;;;;;;;12.85;5.25;;;;;;;;;;5012466;28;20096;-74
2023/03/08 04:46:53;;;;;;;8.55;4.80;;;;;;;;;;4991891;28;20113;-74
2023/03/08 04:49:19;;;;;;;7.32;4.10;;;;;;;;;;4988851;28;20042;-74
2023/03/08 04:51:44;;;;;;;5.28;2.88;;;;;;;;;;5006919;28;20444;-74
2023/03/08 04:54:10;;;;;;;8.60;4.93;;;;;;;;;;4997262;28;20462;-74
2023/03/08 04:56:35;;;;;;;11.20;4.85;;;;;;;;;;4996903;28;20173;-74
2023/03/08 04:59:01;;;;;;;6.93;3.72;;;;;;;;;;4996873;28;20844;-74
2023/03/08 05:01:26;;;;;;;9.27;4.20;;;;;;;;;;4996500;28;20030;-74
2023/03/08 05:03:52;;;;;;;8.63;5.40;;;;;;;;;;4987408;28;20472;-74
2023/03/08 05:06:19;;;;;;;6.55;3.97;;;;;;;;;;5003873;28;20042;-74
2023/03/08 05:08:44;;;;;;;7.30;3.67;;;;;;;;;;4995670;28;20026;-74
2023/03/08 05:11:16;;;;;;;9.20;5.45;;;;;;;;;;4992661;28;20050;-74
2023/03/08 05:13:41;;;;;;;11.00;5.75;;;;;;;;;;4986493;28;20062;-74
2023/03/08 05:16:07;;;;;;;10.95;5.57;;;;;;;;;;4994356;28;20034;-74
2023/03/08 05:18:33;;;;;;;8.30;4.45;;;;;;;;;;4991975;28;20118;-74
2023/03/08 05:21:01;;;;;;;9.57;5.57;;;;;;;;;;4987916;28;20074;-74
2023/03/08 05:23:27;;;;;;;8.95;4.90;;;;;;;;;;4992310;28;20438;-74
2023/03/08 05:25:54;;;;;;;7.07;3.30;;;;;;;;;;4989738;28;20077;-74
2023/03/08 05:28:20;;;;;;;13.63;6.32;;;;;;;;;;4986668;28;20085;-74
2023/03/08 05:30:46;;;;;;;11.30;6.35;;;;;;;;;;4988539;28;20026;-74
2023/03/08 05:33:11;;;;;;;11.20;5.68;;;;;;;;;;4994727;28;20038;-74
2023/03/08 05:35:37;;;;;;;16.20;6.53;;;;;;;;;;4995982;28;20065;-74
2023/03/08 05:38:02;;;;;;;11.93;6.50;;;;;;;;;;4987065;28;20042;-74
2023/03/08 05:40:28;;;;;;;6.03;3.88;;;;;;;;;;4986605;28;20042;-74
2023/03/08 05:42:54;;;;;;;13.70;6.55;;;;;;;;;;4995094;28;20030;-74
2023/03/08 05:45:19;;;;;;;9.40;4.63;;;;;;;;;;4995284;28;20027;-74
2023/03/08 05:47:45;;;;;;;18.50;7.00;;;;;;;;;;4995372;28;20125;-74
2023/03/08 05:50:11;;;;;;;14.65;7.20;;;;;;;;;;4995832;28;20069;-74
2023/03/08 05:52:37;;;;;;;10.43;5.85;;;;;;;;;;4985173;28;20042;-74
2023/03/08 05:55:04;;;;;;;14.35;6.45;;;;;;;;;;4988224;28;20073;-74
2023/03/08 05:57:29;;;;;;;11.80;6.13;;;;;;;;;;4995645;28;20042;-74
2023/03/08 05:59:55;;;;;;;13.85;6.82;;;;;;;;;;4990724;28;20109;-74
2023/03/08 06:02:20;;;;;;;13.15;7.05;;;;;;;;;;4985851;28;20034;-74
2023/03/08 06:04:46;;;;;;;11.30;6.18;;;;;;;;;;4991068;28;20051;-74
2023/03/08 06:07:11;;;;;;;12.20;5.70;;;;;;;;;;4992226;28;20034;-74
2023/03/08 06:09:36;;;;;;;11.57;5.78;;;;;;;;;;4987303;28;20438;-74
2023/03/08 06:12:02;;;;;;;13.63;5.30;;;;;;;;;;4994600;28;20069;-74
2023/03/08 06:14:27;;;;;;;5.60;2.90;;;;;;;;;;4995375;28;20046;-74
2023/03/08 06:16:53;;;;;;;6.97;3.75;;;;;;;;;;4988925;28;20069;-74
2023/03/08 06:19:18;;;;;;;5.75;3.35;;;;;;;;;;4981076;28;20054;-74
2023/03/08 06:21:44;;;;;;;9.02;4.78;;;;;;;;;;4991623;28;20034;-74
2023/03/08 06:24:09;;;;;;;9.70;5.13;;;;;;;;;;4994477;28;20475;-74
2023/03/08 06:26:34;;;;;;;7.97;4.32;;;;;;;;;;4989984;28;20077;-74
2023/03/08 06:29:00;;;;;;;10.93;4.68;;;;;;;;;;4995214;28;20382;-74
2023/03/08 06:31:25;;;;;;;8.18;4.05;;;;;;;;;;4989417;28;20038;-74
2023/03/08 06:33:51;;;;;;;9.50;3.80;;;;;;;;;;4988301;28;20081;-74
2023/03/08 06:36:18;;;;;;;5.80;3.08;;;;;;;;;;4993762;28;20030;-74
2023/03/08 06:38:44;;;;;;;9.60;4.22;;;;;;;;;;4986522;28;20498;-75
2023/03/08 06:41:11;;;;;;;6.65;3.63;;;;;;;;;;4995026;28;20068;-74
2023/03/08 06:43:36;;;;;;;7.22;4.53;;;;;;;;;;4990868;28;20062;-74
2023/03/08 06:46:04;;;;;;;4.88;2.92;;;;;;;;;;4990762;28;20447;-75
2023/03/08 06:48:29;;;;;;;7.38;3.72;;;;;;;;;;4991803;28;20088;-74
2023/03/08 06:50:55;;;;;;;11.25;4.13;;;;;;;;;;4993809;28;20037;-75
2023/03/08 06:53:20;;;;;;;6.28;3.72;;;;;;;;;;4993547;28;20192;-74
2023/03/08 06:55:46;;;;;;;8.30;4.22;;;;;;;;;;4986559;28;20045;-74
2023/03/08 06:58:11;;;;;;;13.10;4.53;;;;;;;;;;4992981;28;20105;-75
2023/03/08 07:00:36;;;;;;;12.73;4.60;;;;;;;;;;4993671;28;20034;-75
2023/03/08 07:03:02;;;;;;;10.52;4.90;;;;;;;;;;4991135;28;20038;-75
2023/03/08 07:05:27;;;;;;;5.95;3.50;;;;;;;;;;4985943;28;20030;-74
2023/03/08 07:07:53;;;;;;;7.30;2.92;;;;;;;;;;4991306;28;20034;-74
2023/03/08 07:10:20;;;;;;;9.35;4.53;;;;;;;;;;4975480;28;20498;-75
2023/03/08 07:12:49;;;;;;;4.63;2.88;;;;;;;;;;4975939;28;20038;-74
2023/03/08 07:15:17;;;;;;;9.45;5.28;;;;;;;;;;4982030;28;20826;-74
2023/03/08 07:17:44;;;;;;;12.52;4.80;;;;;;;;;;4980449;28;20118;-75
2023/03/08 07:20:11;;;;;;;9.23;4.18;;;;;;;;;;4985628;28;20032;-74
2023/03/08 07:22:37;;;;;;;16.08;6.03;;;;;;;;;;4986061;28;20498;-75
2023/03/08 07:25:02;;;;;;;11.20;5.45;;;;;;;;;;4993423;28;20074;-74
2023/03/08 07:27:28;;;;;;;16.92;6.18;;;;;;;;;;4989647;28;20101;-75
2023/03/08 07:29:53;;;;;;;8.63;4.30;;;;;;;;;;4993408;28;20034;-74
2023/03/08 07:32:19;;;;;;;13.43;6.32;;;;;;;;;;4991502;28;20065;-74
2023/03/08 07:34:44;;;;;;;13.60;5.50;;;;;;;;;;4988848;28;20122;-74
2023/03/08 07:37:16;;;;;;;15.48;6.45;;;;;;;;;;4992866;28;20066;-74
2023/03/08 07:39:41;;;;;;;12.63;6.53;;;;;;;;;;4992928;28;20089;-75
2023/03/08 07:42:08;;;;;;;13.07;6.90;;;;;;;;;;4989374;28;20394;-75
2023/03/08 07:44:35;;;;;;;10.63;5.18;;;;;;;;;;4992256;28;20136;-75
2023/03/08 07:47:01;;;;;;;11.25;6.38;;;;;;;;;;4992838;28;20050;-74
2023/03/08 07:49:26;;;;;;;12.18;6.28;;;;;;;;;;4993268;28;20034;-74
2023/03/08 07:51:52;;;;;;;10.13;5.70;;;;;;;;;;4987702;28;20045;-75
2023/03/08 07:54:18;;;;;;;10.48;5.85;;;;;;;;;;4992040;28;20537;-74
2023/03/08 07:56:43;;;;;;;9.05;4.55;;;;;;;;;;4986567;28;20034;-74
2023/03/08 07:59:09;;;;;;;12.38;7.18;;;;;;;;;;4991711;28;20042;-75
2023/03/08 08:01:34;;;;;;;9.98;6.07;;;;;;;;;;4992808;28;20053;-74
2023/03/08 08:03:59;;;;;;;17.25;6.15;;;;;;;;;;4993272;28;20069;-74
2023/03/08 08:06:26;;;;;;;7.93;4.90;;;;;;;;;;4992492;28;20036;-75
2023/03/08 08:08:52;;;;;;;6.05;3.10;;;;;;;;;;4991874;28;20487;-75
2023/03/08 08:11:20;;;;;;;10.55;6.05;;;;;;;;;;5008894;28;20113;-75
2023/03/08 08:13:46;;;;;;;9.98;5.15;;;;;;;;;;4993636;28;20042;-75
2023/03/08 08:16:13;;;;;;;11.57;6.38;;;;;;;;;;5008783;28;20142;-75
2023/03/08 08:18:38;;;;;;;9.90;5.05;;;;;;;;;;4994116;28;20034;-75
2023/03/08 08:21:06;;;;;;;8.60;3.83;;;;;;;;;;5008720;28;20089;-75
2023/03/08 08:23:32;;;;;;;12.23;5.65;;;;;;;;;;4983659;28;20049;-74
2023/03/08 08:25:57;;;;;;;12.18;6.05;;;;;;;;;;4993506;28;20022;-75
2023/03/08 08:28:24;;;;;;;10.15;5.72;;;;;;;;;;4993724;28;20448;-75
2023/03/08 08:31:00;;;;;;;12.23;6.13;;;;;;;;;;4992465;28;20050;-74
2023/03/08 08:33:30;;;;;;;9.38;5.57;;;;;;;;;;4990411;28;20065;-74
2023/03/08 08:35:55;;;;;;;19.08;7.82;;;;;;;;;;4993520;28;20038;-74
2023/03/08 08:38:21;;;;;;;8.52;4.32;;;;;;;;;;4993800;28;20489;-75
2023/03/08 08:40:47;;;;;;;14.07;6.97;;;;;;;;;;4992419;28;20066;-75
2023/03/08 08:43:12;;;;;;;7.63;3.53;;;;;;;;;;4976406;28;20039;-75
2023/03/08 08:45:45;;;;;;;9.32;3.92;;;;;;;;;;4978580;28;20428;-75
2023/03/08 08:48:11;;;;;;;14.00;7.75;;;;;;;;;;4989852;28;20395;-75
2023/03/08 08:50:41;;;;;;;11.00;5.18;;;;;;;;;;4985458;28;20042;-75
2023/03/08 08:53:08;;;;;;;10.05;5.32;;;;;;;;;;4998192;28;20046;-75
2023/03/08 08:55:34;;;;;;;13.80;7.10;;;;;;;;;;4994863;28;20070;-75
2023/03/08 08:58:01;;;;;;;12.93;7.03;;;;;;;;;;4986581;28;20122;-75
2023/03/08 09:00:27;;;;;;;11.85;5.88;;;;;;;;;;4981335;28;20470;-75
2023/03/08 09:02:52;;;;;;;8.55;4.95;;;;;;;;;;4986124;28;20058;-75
2023/03/08 09:05:17;;;;;;;11.35;6.03;;;;;;;;;;4993791;28;20041;-75
2023/03/08 09:07:43;;;;;;;13.27;6.07;;;;;;;;;;4989490;28;20041;-75
2023/03/08 09:10:09;;;;;;;8.60;4.60;;;;;;;;;;4980985;28;20039;-75
2023/03/08 09:12:34;;;;;;;13.65;6.07;;;;;;;;;;4988243;28;20089;-75
2023/03/08 09:15:00;;;;;;;9.15;5.18;;;;;;;;;;4983169;28;20038;-75
2023/03/08 09:17:25;;;;;;;6.35;3.80;;;;;;;;;;4996919;28;20037;-75
2023/03/08 09:19:51;;;;;;;7.55;4.60;;;;;;;;;;4989141;28;20039;-75
2023/03/08 09:22:17;;;;;;;9.25;5.10;;;;;;;;;;4981148;28;20058;-75
2023/03/08 09:24:44;;;;;;;4.78;2.75;;;;;;;;;;4982171;28;20042;-75
2023/03/08 09:27:10;;;;;;;10.13;4.60;;;;;;;;;;4979157;28;20047;-75
2023/03/08 09:29:36;;;;;;;8.48;4.35;;;;;;;;;;4977536;28;20037;-75
2023/03/08 09:32:03;;;;;;;8.85;4.72;;;;;;;;;;4988595;28;20459;-75
2023/03/08 09:34:29;;;;;;;10.35;5.55;;;;;;;;;;5011481;28;20116;-75
2023/03/08 09:36:54;;;;;;;14.48;5.38;;;;;;;;;;4996405;28;20030;-75
2023/03/08 09:39:20;;;;;;;9.73;5.07;;;;;;;;;;4996031;28;20096;-75
2023/03/08 09:41:46;;;;;;;10.45;4.70;;;;;;;;;;4984195;28;20066;-75
2023/03/08 09:44:42;;;;;;;10.70;5.07;;;;;;;;;;4996133;28;20467;-74
2023/03/08 09:47:45;;;;;;;9.05;4.53;;;;;;;;;;4972538;28;20082;-74
2023/03/08 09:50:10;;;;;;;11.52;4.80;;;;;;;;;;4995903;28;20043;-74
2023/03/08 09:52:47;;;;;;;5.93;3.55;;;;;;;;;;4995848;28;20414;-74
2023/03/08 09:55:29;;;;;;;8.63;4.28;;;;;;;;;;4989830;28;20124;-75
2023/03/08 09:57:56;;;;;;;9.35;5.45;;;;;;;;;;4999547;28;20532;-74
2023/03/08 10:00:31;;;;;;;3.78;2.22;;;;;;;;;;4981692;28;20038;-74
2023/03/08 10:03:18;;;;;;;7.40;4.25;;;;;;;;;;4993963;28;20041;-75
2023/03/08 10:06:11;;;;;;;7.22;4.82;;;;;;;;;;4995946;28;20042;-75
2023/03/08 10:08:55;;;;;;;8.05;4.60;;;;;;;;;;4984906;28;20394;-75
2023/03/08 10:11:30;;;;;;;7.90;4.97;;;;;;;;;;4985109;28;20557;-74
2023/03/08 10:13:59;;;;;;;9.50;4.38;;;;;;;;;;4989082;28;20089;-75
2023/03/08 10:16:31;;;;;;;6.18;4.22;;;;;;;;;;4994680;28;20038;-74
2023/03/08 10:19:26;;;;;;;5.88;3.30;;;;;;;;;;5010269;28;20045;-74
2023/03/08 10:21:53;;;;;;;7.43;4.20;;;;;;;;;;4992334;28;20035;-75
2023/03/08 10:24:25;;;;;;;3.47;2.00;;;;;;;;;;4995623;28;20042;-75
2023/03/08 10:26:53;;;;;;;7.10;4.10;;;;;;;;;;5006948;28;20068;-75
2023/03/08 10:29:20;;;;;;;5.25;3.50;;;;;;;;;;4987579;28;20391;-75
2023/03/08 10:31:46;;;;;;;5.63;3.40;;;;;;;;;;5010365;28;20038;-75
2023/03/08 10:34:17;;;;;;;5.93;3.70;;;;;;;;;;4993257;28;20080;-75
2023/03/08 10:37:05;;;;;;;6.60;3.97;;;;;;;;;;4986396;28;20109;-75
2023/03/08 10:39:30;;;;;;;7.22;3.60;;;;;;;;;;5010447;28;20383;-75
2023/03/08 10:41:58;;;;;;;8.38;3.67;;;;;;;;;;4994993;28;20054;-75
2023/03/08 10:44:30;;;;;;;3.88;2.63;;;;;;;;;;4995278;28;20502;-75
2023/03/08 10:46:56;;;;;;;6.40;3.55;;;;;;;;;;4993179;28;20042;-74
2023/03/08 10:49:23;;;;;;;5.78;3.67;;;;;;;;;;4994963;28;20088;-75
2023/03/08 10:51:57;;;;;;;3.85;2.15;;;;;;;;;;4994951;28;20085;-74
2023/03/08 10:54:22;;;;;;;;;;;;;;;;;;4993782;28;20076;-75
2023/03/08 10:56:54;;;;;;;7.22;4.32;;;;;;;;;;4994904;28;20384;-75
2023/03/08 10:59:26;;;;;;;5.22;3.70;;;;;;;;;;4984067;28;20034;-74
2023/03/08 11:01:58;;;;;;;4.70;2.63;;;;;;;;;;4993604;28;20493;-74
2023/03/08 11:04:26;;;;;;;3.03;1.88;;;;;;;;;;4993570;28;20472;-74
2023/03/08 11:06:51;;;;;;;12.10;3.67;;;;;;;;;;4982975;28;20047;-74
2023/03/08 11:09:26;;;;;;;4.00;2.55;;;;;;;;;;4993690;28;20042;-73
2023/03/08 11:11:53;;;;;;;5.78;2.25;;;;;;;;;;4981551;28;20038;-74
2023/03/08 11:14:19;;;;;;;5.40;3.53;;;;;;;;;;4993088;28;20493;-74
2023/03/08 11:17:05;;;;;;;6.22;3.40;;;;;;;;;;4994495;28;20027;-74
2023/03/08 11:19:37;;;;;;;5.32;3.45;;;;;;;;;;4993442;28;20049;-74
2023/03/08 11:22:21;;;;;;;5.65;3.40;;;;;;;;;;4994451;28;20102;-74
2023/03/08 11:24:49;;;;;;;5.10;3.30;;;;;;;;;;4993540;28;20034;-74
2023/03/08 11:27:15;;;;;;;4.85;2.90;;;;;;;;;;4994393;28;20092;-75
2023/03/08 11:30:22;;;;;;;4.30;2.85;;;;;;;;;;4989456;28;20042;-74
2023/03/08 11:33:00;;;;;;;5.32;3.55;;;;;;;;;;4989153;28;20058;-75
2023/03/08 11:35:44;;;;;;;4.60;2.97;;;;;;;;;;4980476;28;20034;-75
2023/03/08 11:38:24;;;;;;;4.80;3.17;;;;;;;;;;4994250;28;20053;-75
2023/03/08 11:40:55;;;;;;;5.70;3.10;;;;;;;;;;4981796;28;20038;-75
2023/03/08 11:43:46;;;;;;;5.20;3.70;;;;;;;;;;4994093;28;20045;-75
2023/03/08 11:46:17;;;;;;;5.65;3.25;;;;;;;;;;4994061;28;20042;-74
2023/03/08 11:49:33;;;;;;;5.28;2.72;;;;;;;;;;4993960;28;20062;-74
2023/03/08 11:52:09;;;;;;;4.63;3.00;;;;;;;;;;4981820;28;20100;-74
2023/03/08 11:54:49;;;;;;;4.30;2.58;;;;;;;;;;4985534;28;20042;-74
2023/03/08 11:57:16;;;;;;;5.28;2.97;;;;;;;;;;4993971;28;20042;-74
2023/03/08 11:59:45;;;;;;;1.65;1.10;;;;;;;;;;4992758;28;20038;-74
2023/03/08 12:02:28;;;;;;;6.30;3.03;;;;;;;;;;5007712;28;20045;-74
2023/03/08 12:04:57;;;;;;;3.28;2.15;;;;;;;;;;4988656;28;20463;-74
2023/03/08 12:07:27;;;;;;;5.45;3.17;;;;;;;;;;4993897;28;20127;-74
2023/03/08 12:10:19;;;;;;;5.55;2.92;;;;;;;;;;4993421;28;20049;-75
2023/03/08 12:13:02;;;;;;;4.00;1.95;;;;;;;;;;4970278;28;20089;-75
2023/03/08 12:15:38;;;;;;;7.25;2.80;;;;;;;;;;4993722;28;20073;-75
2023/03/08 12:18:15;;;;;;;3.35;2.30;;;;;;;;;;4992571;28;20049;-75
2023/03/08 12:20:42;;;;;;;4.18;2.50;;;;;;;;;;4981006;28;20043;-75
2023/03/08 12:23:28;;;;;;;4.60;3.17;;;;;;;;;;4993578;28;20406;-75
2023/03/08 12:26:06;;;;;;;4.78;3.03;;;;;;;;;;4983236;28;20084;-74
2023/03/08 12:28:39;;;;;;;4.72;2.90;;;;;;;;;;4996061;28;20038;-74
2023/03/08 12:31:24;;;;;;;4.72;2.70;;;;;;;;;;5011189;28;20038;-74
2023/03/08 12:33:55;;;;;;;4.55;2.78;;;;;;;;;;4993340;28;20047;-74
2023/03/08 12:36:34;;;;;;;4.60;3.00;;;;;;;;;;5012630;28;20124;-74
2023/03/08 12:39:09;;;;;;;7.50;3.17;;;;;;;;;;4984131;28;20042;-75
2023/03/08 12:41:34;;;;;;;4.63;2.78;;;;;;;;;;5007116;28;20049;-75
2023/03/08 12:44:03;;;;;;;5.32;3.10;;;;;;;;;;4991451;28;20038;-75
2023/03/08 12:46:45;;;;;;;4.47;2.83;;;;;;;;;;4994677;28;20030;-75
2023/03/08 12:49:43;;;;;;;3.00;2.10;;;;;;;;;;4995308;28;20070;-75
2023/03/08 12:52:17;;;;;;;4.90;2.40;;;;;;;;;;4975863;28;20054;-74
2023/03/08 12:54:44;;;;;;;4.57;2.65;;;;;;;;;;4995303;28;20460;-75
2023/03/08 12:57:18;;;;;;;4.28;2.55;;;;;;;;;;4999573;28;20039;-74
2023/03/08 12:59:43;;;;;;;2.72;1.50;;;;;;;;;;4977128;28;20031;-75
2023/03/08 13:02:24;;;;;;;4.93;2.90;;;;;;;;;;4989035;28;20144;-74
2023/03/08 13:05:18;;;;;;;4.93;2.63;;;;;;;;;;4985160;28;20042;-74
2023/03/08 13:08:00;;;;;;;4.07;2.50;;;;;;;;;;4989712;28;20368;-74
2023/03/08 13:10:32;;;;;;;2.20;1.55;;;;;;;;;;4988191;28;20031;-74
2023/03/08 13:13:10;;;;;;;2.72;1.83;;;;;;;;;;5008155;28;20037;-74
2023/03/08 13:15:37;;;;;;;5.20;2.65;;;;;;;;;;4985446;28;20475;-74
2023/03/08 13:18:08;;;;;;;3.53;2.30;;;;;;;;;;4993158;28;20057;-74
2023/03/08 13:20:39;;;;;;;3.88;2.13;;;;;;;;;;4988918;28;20049;-74
2023/03/08 13:23:14;;;;;;;4.95;2.90;;;;;;;;;;4996613;28;20121;-73
2023/03/08 13:25:51;;;;;;;5.05;2.72;;;;;;;;;;4985203;28;20073;-74
2023/03/08 13:28:19;;;;;;;4.57;2.50;;;;;;;;;;4990939;28;20117;-74
2023/03/08 13:30:50;;;;;;;4.55;2.60;;;;;;;;;;4989826;28;20042;-73
2023/03/08 13:33:41;;;;;;;4.03;2.47;;;;;;;;;;4995978;28;20026;-74
2023/03/08 13:36:24;;;;;;;6.65;2.95;;;;;;;;;;5002147;28;20046;-73
2023/03/08 13:38:57;;;;;;;3.78;2.45;;;;;;;;;;4985990;28;20092;-73
2023/03/08 13:41:37;;;;;;;4.40;2.77;;;;;;;;;;4995751;28;20038;-74
2023/03/08 13:44:22;;;;;;;6.00;2.10;;;;;;;;;;4996132;28;20109;-74
2023/03/08 13:46:50;;;;;;;3.97;2.55;;;;;;;;;;5006420;28;20128;-74
2023/03/08 13:49:23;;;;;;;5.50;1.60;;;;;;;;;;4980316;28;20034;-74
2023/03/08 13:51:51;;;;;;;4.28;2.53;;;;;;;;;;5011104;28;20046;-74
2023/03/08 13:54:29;;;;;;;3.92;2.50;;;;;;;;;;4995535;28;20142;-74
2023/03/08 13:56:59;;;;;;;3.45;2.28;;;;;;;;;;4982426;28;20073;-74
2023/03/08 13:59:26;;;;;;;4.97;2.47;;;;;;;;;;5000042;28;20590;-73
2023/03/08 14:01:52;;;;;;;3.50;2.17;;;;;;;;;;4992399;28;20117;-74
2023/03/08 14:04:23;;;;;;;1.77;1.25;;;;;;;;;;4977392;28;20043;-74
2023/03/08 14:06:55;;;;;;;3.60;1.85;;;;;;;;;;4992166;28;20394;-74
2023/03/08 14:09:21;;;;;;;3.38;2.20;;;;;;;;;;4988360;28;20045;-73
2023/03/08 14:12:00;;;;;;;3.78;2.30;;;;;;;;;;4995805;28;20109;-74
2023/03/08 14:14:29;;;;;;;3.67;2.15;;;;;;;;;;4987884;28;20068;-74
2023/03/08 14:16:55;;;;;;;4.30;2.50;;;;;;;;;;4995617;28;20113;-74
2023/03/08 14:19:30;;;;;;;3.78;2.28;;;;;;;;;;4992161;28;20450;-74
2023/03/08 14:22:07;;;;;;;3.78;2.28;;;;;;;;;;4982303;28;20046;-73
2023/03/08 14:24:34;;;;;;;4.00;2.40;;;;;;;;;;4983980;28;20041;-73
2023/03/08 14:27:21;;;;;;;4.03;2.40;;;;;;;;;;4994125;28;20046;-74
2023/03/08 14:29:46;;;;;;;3.97;2.00;;;;;;;;;;4994873;28;20081;-74
2023/03/08 14:32:12;;;;;;;3.47;2.00;;;;;;;;;;4995410;28;20042;-74
2023/03/08 14:34:39;;;;;;;3.13;2.17;;;;;;;;;;4995329;28;20044;-73
2023/03/08 14:37:06;;;;;;;3.30;2.15;;;;;;;;;;5010192;28;20504;-73
2023/03/08 14:39:34;;;;;;;3.83;2.50;;;;;;;;;;5010333;28;20162;-74
2023/03/08 14:42:09;;;;;;;3.13;1.73;;;;;;;;;;4993994;28;20070;-74
2023/03/08 14:44:35;;;;;;;3.00;1.90;;;;;;;;;;4993558;28;20034;-73
2023/03/08 14:47:30;;;;;;;2.15;1.42;;;;;;;;;;5005345;28;20038;-74
2023/03/08 14:50:01;;;;;;;2.58;1.70;;;;;;;;;;4986640;28;20042;-74
2023/03/08 14:52:28;;;;;;;3.15;1.85;;;;;;;;;;4982510;28;20054;-74